createdAt,value
2023-03-10T00:01:38.463Z,10.80
2023-03-10T00:03:40.614Z,10.70
2023-03-10T00:05:42.300Z,10.60
2023-03-10T00:07:44.417Z,10.60
2023-03-10T00:09:46.143Z,10.50
2023-03-10T00:11:47.940Z,10.50
2023-03-10T00:13:49.653Z,10.40
2023-03-10T00:15:51.299Z,10.40
2023-03-10T00:17:55.621Z,10.40
2023-03-10T00:19:57.316Z,10.40
2023-03-10T00:21:58.987Z,10.30
2023-03-10T00:24:00.667Z,10.30
2023-03-10T00:26:02.265Z,10.30
2023-03-10T00:28:03.886Z,10.30
2023-03-10T00:30:05.782Z,10.30
2023-03-10T00:32:07.516Z,10.30
2023-03-10T00:34:10.344Z,10.40
2023-03-10T00:36:14.849Z,10.40
2023-03-10T00:38:16.526Z,10.40
2023-03-10T00:40:18.428Z,10.40
2023-03-10T00:42:20.197Z,10.40
2023-03-10T00:44:21.900Z,10.50
2023-03-10T00:46:24.479Z,10.50
2023-03-10T00:48:26.672Z,10.50
2023-03-10T00:50:28.249Z,10.40
2023-03-10T00:52:33.167Z,10.50
2023-03-10T00:54:34.848Z,10.50
2023-03-10T00:56:36.496Z,10.50
2023-03-10T00:58:38.313Z,10.50
2023-03-10T01:00:40.038Z,10.40
2023-03-10T01:02:41.815Z,10.40
2023-03-10T01:04:43.547Z,10.30
2023-03-10T01:06:47.533Z,10.30
2023-03-10T01:08:49.495Z,10.40
2023-03-10T01:10:51.223Z,10.30
2023-03-10T01:12:52.901Z,10.30
2023-03-10T01:14:54.597Z,10.30
2023-03-10T01:16:56.252Z,10.30
2023-03-10T01:18:58.405Z,10.30
2023-03-10T01:21:00.054Z,10.20
2023-03-10T01:23:02.096Z,10.20
2023-03-10T01:25:03.856Z,10.10
2023-03-10T01:27:05.509Z,10.10
2023-03-10T01:29:07.205Z,10.10
2023-03-10T01:31:09.003Z,10.00
2023-03-10T01:33:11.427Z,10.00
2023-03-10T01:35:13.024Z,10.00
2023-03-10T01:37:14.612Z,9.90
2023-03-10T01:39:16.999Z,9.90
2023-03-10T01:41:18.906Z,9.90
2023-03-10T01:43:20.529Z,9.90
2023-03-10T01:45:22.147Z,9.90
2023-03-10T01:47:23.830Z,9.90
2023-03-10T01:49:39.541Z,9.90
2023-03-10T01:51:43.972Z,9.80
2023-03-10T01:53:45.861Z,9.80
2023-03-10T01:55:49.753Z,9.80
2023-03-10T01:57:55.507Z,9.80
2023-03-10T01:59:57.800Z,9.80
2023-03-10T02:02:00.073Z,9.80
2023-03-10T02:04:11.855Z,9.80
2023-03-10T02:08:41.831Z,9.70
2023-03-10T02:10:46.390Z,9.60
2023-03-10T02:12:50.827Z,9.60
2023-03-10T02:14:55.336Z,9.80
2023-03-10T02:16:57.382Z,9.90
2023-03-10T02:18:59.428Z,9.90
2023-03-10T02:21:10.251Z,10.00
2023-03-10T02:23:15.434Z,10.20
2023-03-10T02:25:20.319Z,10.50
2023-03-10T02:27:24.867Z,10.40
2023-03-10T02:29:30.307Z,10.50
2023-03-10T02:31:34.025Z,10.50
2023-03-10T02:33:36.798Z,10.50
2023-03-10T02:35:38.858Z,10.80
2023-03-10T02:37:40.877Z,10.90
2023-03-10T02:39:42.661Z,11.00
2023-03-10T02:41:46.622Z,11.10
2023-03-10T02:43:48.905Z,11.00
2023-03-10T02:45:51.365Z,11.00
2023-03-10T02:47:54.279Z,10.90
2023-03-10T02:49:56.096Z,10.90
2023-03-10T02:52:02.916Z,10.80
2023-03-10T02:54:08.620Z,10.80
2023-03-10T02:56:10.655Z,10.80
2023-03-10T02:58:13.598Z,10.80
2023-03-10T03:00:15.515Z,10.80
2023-03-10T03:02:17.524Z,10.80
2023-03-10T03:04:21.847Z,10.90
2023-03-10T03:06:23.555Z,10.80
2023-03-10T03:08:25.300Z,10.80
2023-03-10T03:10:27.053Z,10.70
2023-03-10T03:12:29.013Z,10.70
2023-03-10T03:14:30.749Z,10.60
2023-03-10T03:16:34.726Z,10.60
2023-03-10T03:18:48.007Z,10.70
2023-03-10T03:20:49.739Z,10.60
2023-03-10T03:22:51.492Z,10.60
2023-03-10T03:24:53.433Z,10.60
2023-03-10T03:26:55.256Z,10.60
2023-03-10T03:28:56.929Z,10.60
2023-03-10T03:30:59.099Z,10.60
2023-03-10T03:33:01.536Z,10.60
2023-03-10T03:35:04.288Z,10.60
2023-03-10T03:37:05.900Z,10.60
2023-03-10T03:39:07.560Z,10.50
2023-03-10T03:41:09.640Z,10.50
2023-03-10T03:43:12.608Z,10.40
2023-03-10T03:45:16.027Z,10.50
2023-03-10T03:47:17.733Z,10.50
2023-03-10T03:49:19.378Z,10.40
2023-03-10T03:51:20.941Z,10.40
2023-03-10T03:53:22.558Z,10.40
2023-03-10T03:55:24.154Z,10.40
2023-03-10T03:57:26.023Z,10.40
2023-03-10T03:59:27.624Z,10.50
2023-03-10T04:01:29.314Z,10.50
2023-03-10T04:03:31.010Z,10.50
2023-03-10T04:05:32.636Z,10.50
2023-03-10T04:07:34.333Z,10.50
2023-03-10T04:09:38.393Z,10.40
2023-03-10T04:11:40.047Z,10.40
2023-03-10T04:13:41.984Z,10.40
2023-03-10T04:15:43.630Z,10.40
2023-03-10T04:17:45.266Z,10.40
2023-03-10T04:19:54.183Z,10.40
2023-03-10T04:22:02.466Z,10.40
2023-03-10T04:24:07.421Z,10.40
2023-03-10T04:26:09.633Z,10.30
2023-03-10T04:28:11.870Z,10.30
2023-03-10T04:30:14.387Z,10.20
2023-03-10T04:32:16.050Z,10.20
2023-03-10T04:34:18.801Z,10.10
2023-03-10T04:36:20.844Z,10.10
2023-03-10T04:38:23.692Z,10.00
2023-03-10T04:40:25.364Z,9.90
2023-03-10T04:42:28.054Z,9.90
2023-03-10T04:44:31.405Z,9.90
2023-03-10T04:46:33.740Z,9.90
2023-03-10T04:48:35.446Z,9.90
2023-03-10T04:50:37.400Z,9.80
2023-03-10T04:52:42.054Z,9.80
2023-03-10T04:54:45.048Z,9.90
2023-03-10T04:56:46.727Z,9.90
2023-03-10T04:58:48.394Z,9.90
2023-03-10T05:01:02.322Z,9.90
2023-03-10T05:03:05.174Z,10.00
2023-03-10T05:05:07.075Z,9.90
2023-03-10T05:07:08.772Z,9.90
2023-03-10T05:09:10.380Z,10.00
2023-03-10T05:11:12.353Z,10.00
2023-03-10T05:13:14.073Z,9.80
2023-03-10T05:15:15.696Z,9.80
2023-03-10T05:17:17.467Z,9.80
2023-03-10T05:19:19.249Z,9.80
2023-03-10T05:21:21.870Z,9.80
2023-03-10T05:23:24.027Z,9.70
2023-03-10T05:25:25.655Z,9.60
2023-03-10T05:27:27.303Z,9.50
2023-03-10T05:29:29.022Z,9.40
2023-03-10T05:31:30.834Z,9.30
2023-03-10T05:33:32.507Z,9.30
2023-03-10T05:35:34.213Z,9.30
2023-03-10T05:37:36.713Z,9.30
2023-03-10T05:39:38.411Z,9.30
2023-03-10T05:41:40.083Z,9.40
2023-03-10T05:43:44.563Z,9.70
2023-03-10T05:45:54.339Z,9.90
2023-03-10T05:47:55.978Z,9.90
2023-03-10T05:49:57.583Z,9.90
2023-03-10T05:51:59.355Z,9.90
2023-03-10T05:54:01.045Z,9.90
2023-03-10T05:56:13.175Z,9.90
2023-03-10T05:58:16.008Z,10.00
2023-03-10T06:00:17.990Z,10.10
2023-03-10T06:02:19.652Z,10.10
2023-03-10T06:04:21.413Z,10.20
2023-03-10T06:06:23.214Z,10.20
2023-03-10T06:08:26.645Z,10.30
2023-03-10T06:10:28.387Z,10.30
2023-03-10T06:12:32.117Z,10.30
2023-03-10T06:14:33.907Z,10.30
2023-03-10T06:16:35.657Z,10.20
2023-03-10T06:18:41.597Z,10.30
2023-03-10T06:20:43.246Z,10.20
2023-03-10T06:22:44.953Z,10.20
2023-03-10T06:24:46.637Z,10.10
2023-03-10T06:26:48.554Z,10.10
2023-03-10T06:28:51.468Z,10.00
2023-03-10T06:30:56.630Z,10.00
2023-03-10T06:33:02.122Z,10.00
2023-03-10T06:35:04.430Z,10.00
2023-03-10T06:37:06.151Z,9.90
2023-03-10T06:39:08.089Z,9.80
2023-03-10T06:41:09.862Z,9.80
2023-03-10T06:43:13.101Z,9.80
2023-03-10T06:45:16.393Z,9.80
2023-03-10T06:47:18.173Z,9.80
2023-03-10T06:49:19.934Z,9.80
2023-03-10T06:51:22.697Z,9.80
2023-03-10T06:53:24.643Z,9.80
2023-03-10T06:55:29.366Z,9.90
2023-03-10T06:57:32.700Z,9.90
2023-03-10T06:59:34.396Z,9.90
2023-03-10T07:01:36.127Z,9.80
2023-03-10T07:03:37.874Z,9.90
2023-03-10T07:05:39.679Z,10.00
2023-03-10T07:07:41.681Z,10.00
2023-03-10T07:09:43.682Z,10.10
2023-03-10T07:11:45.574Z,10.20
2023-03-10T07:13:52.332Z,10.20
2023-03-10T07:15:54.096Z,10.30
2023-03-10T07:17:56.452Z,10.30
2023-03-10T07:19:58.135Z,10.20
2023-03-10T07:21:59.833Z,10.20
2023-03-10T07:24:01.449Z,10.20
2023-03-10T07:26:05.717Z,10.10
2023-03-10T07:28:07.841Z,10.10
2023-03-10T07:30:10.097Z,10.10
2023-03-10T07:32:11.850Z,10.10
2023-03-10T07:34:13.672Z,10.10
2023-03-10T07:36:16.747Z,10.10
2023-03-10T07:38:18.465Z,10.20
2023-03-10T07:40:24.959Z,10.20
2023-03-10T07:42:26.787Z,10.30
2023-03-10T07:44:28.408Z,10.30
2023-03-10T07:46:30.205Z,10.40
2023-03-10T07:48:41.641Z,10.40
2023-03-10T07:50:54.879Z,10.40
2023-03-10T07:53:37.390Z,10.40
2023-03-10T07:56:34.805Z,10.40
2023-03-10T07:58:49.197Z,10.50
2023-03-10T08:00:57.593Z,10.50
2023-03-10T08:02:59.301Z,10.50
2023-03-10T08:05:01.221Z,10.60
2023-03-10T08:07:02.972Z,10.60
2023-03-10T08:09:04.636Z,10.70
2023-03-10T08:11:09.616Z,10.60
2023-03-10T08:13:11.700Z,10.60
2023-03-10T08:15:14.600Z,10.60
2023-03-10T08:17:16.439Z,10.50
2023-03-10T08:19:20.185Z,10.50
2023-03-10T08:21:22.304Z,10.50
2023-03-10T08:23:24.572Z,10.40
2023-03-10T08:25:26.257Z,10.30
2023-03-10T08:27:29.201Z,9.90
2023-03-10T08:29:30.935Z,9.50
2023-03-10T08:31:32.802Z,9.40
2023-03-10T08:33:34.748Z,9.30
2023-03-10T08:35:37.265Z,9.20
2023-03-10T08:37:41.290Z,8.90
2023-03-10T08:39:45.057Z,8.80
2023-03-10T08:41:49.151Z,8.80
2023-03-10T08:43:51.879Z,8.80
2023-03-10T08:45:53.473Z,8.80
2023-03-10T08:47:55.129Z,8.90
2023-03-10T08:49:56.723Z,9.00
2023-03-10T08:52:00.019Z,9.00
2023-03-10T08:54:01.963Z,9.00
2023-03-10T08:56:04.199Z,9.00
2023-03-10T08:58:05.826Z,9.00
2023-03-10T09:00:10.392Z,9.10
2023-03-10T09:02:14.798Z,9.00
2023-03-10T09:04:16.553Z,9.10
2023-03-10T09:06:18.396Z,9.20
2023-03-10T09:08:20.106Z,9.30
2023-03-10T09:10:21.748Z,9.40
2023-03-10T09:12:23.404Z,9.50
2023-03-10T09:14:25.858Z,9.60
2023-03-10T09:16:28.873Z,9.60
2023-03-10T09:18:30.576Z,9.80
2023-03-10T09:20:32.184Z,10.00
2023-03-10T09:22:33.798Z,10.00
2023-03-10T09:24:35.390Z,10.00
2023-03-10T09:26:37.041Z,10.20
2023-03-10T09:28:38.821Z,10.20
2023-03-10T09:30:41.354Z,10.40
2023-03-10T09:32:44.764Z,10.60
2023-03-10T09:34:46.678Z,10.70
2023-03-10T09:36:48.339Z,10.90
2023-03-10T09:38:49.981Z,11.00
2023-03-10T09:41:08.698Z,11.20
2023-03-10T09:43:15.042Z,11.20
2023-03-10T09:45:35.640Z,11.20
2023-03-10T09:48:04.879Z,11.20
2023-03-10T09:50:22.599Z,11.10
2023-03-10T09:52:28.639Z,11.20
2023-03-10T09:54:42.361Z,11.30
2023-03-10T09:56:44.153Z,11.40
2023-03-10T09:58:47.455Z,11.40
2023-03-10T10:00:49.118Z,11.40
2023-03-10T10:02:56.212Z,11.30
2023-03-10T10:05:00.124Z,11.40
2023-03-10T10:07:05.104Z,11.50
2023-03-10T10:09:12.298Z,11.70
2023-03-10T10:11:15.506Z,11.70
2023-03-10T10:13:17.557Z,11.80
2023-03-10T10:15:22.344Z,11.70
2023-03-10T10:17:29.879Z,11.60
2023-03-10T10:19:32.770Z,11.60
2023-03-10T10:21:42.913Z,11.50
2023-03-10T10:23:47.459Z,11.40
2023-03-10T10:25:50.438Z,11.30
2023-03-10T10:27:53.502Z,11.40
2023-03-10T10:29:55.154Z,11.30
2023-03-10T10:32:13.335Z,11.30
2023-03-10T10:34:20.025Z,11.30
2023-03-10T10:36:23.197Z,11.20
2023-03-10T10:38:27.245Z,11.40
2023-03-10T10:40:31.149Z,11.40
2023-03-10T10:42:34.314Z,11.30
2023-03-10T10:44:39.925Z,11.30
2023-03-10T10:46:50.964Z,11.40
2023-03-10T10:49:03.536Z,11.40
2023-03-10T10:51:19.390Z,11.40
2023-03-10T10:53:26.622Z,11.30
2023-03-10T10:55:28.545Z,11.30
2023-03-10T10:57:32.415Z,11.20
2023-03-10T10:59:35.052Z,11.30
2023-03-10T11:01:47.683Z,11.30
2023-03-10T11:04:02.392Z,11.30
2023-03-10T11:06:16.325Z,11.40
2023-03-10T11:08:27.126Z,11.50
2023-03-10T11:10:32.806Z,11.70
2023-03-10T11:12:53.517Z,11.70
2023-03-10T11:15:07.454Z,11.60
2023-03-10T11:17:18.772Z,11.70
2023-03-10T11:19:38.828Z,11.70
2023-03-10T11:21:43.935Z,11.70
2023-03-10T11:23:49.971Z,11.70
2023-03-10T11:25:55.360Z,11.70
2023-03-10T11:28:14.665Z,11.70
2023-03-10T11:30:38.164Z,11.70
2023-03-10T11:33:05.957Z,11.80
2023-03-10T11:35:22.440Z,11.70
2023-03-10T11:37:45.181Z,11.70
2023-03-10T11:39:49.902Z,11.60
2023-03-10T11:41:55.598Z,11.60
2023-03-10T11:44:04.479Z,11.60
2023-03-10T11:46:32.562Z,11.70
2023-03-10T11:48:46.639Z,11.70
2023-03-10T11:50:48.294Z,11.60
2023-03-10T11:52:55.299Z,11.80
2023-03-10T11:55:17.878Z,11.80
2023-03-10T11:57:20.835Z,11.90
2023-03-10T11:59:23.868Z,11.90
2023-03-10T12:01:31.091Z,11.70
2023-03-10T12:03:41.664Z,11.70
2023-03-10T12:05:45.835Z,11.70
2023-03-10T12:07:50.433Z,11.80
2023-03-10T12:09:54.307Z,11.90
2023-03-10T12:11:56.294Z,12.00
2023-03-10T12:13:59.489Z,12.10
2023-03-10T12:16:03.494Z,11.80
2023-03-10T12:18:05.994Z,11.90
2023-03-10T12:20:12.063Z,12.00
2023-03-10T12:22:24.840Z,12.00
2023-03-10T12:24:43.490Z,12.00
2023-03-10T12:26:45.169Z,11.90
2023-03-10T12:28:46.838Z,12.00
2023-03-10T12:31:01.012Z,12.00
2023-03-10T12:33:02.768Z,12.10
2023-03-10T12:35:22.434Z,12.10
2023-03-10T12:37:24.108Z,11.90
2023-03-10T12:39:32.074Z,11.80
2023-03-10T12:41:43.144Z,11.60
2023-03-10T12:43:52.891Z,11.60
2023-03-10T12:45:58.335Z,11.50
2023-03-10T12:48:01.835Z,11.40
2023-03-10T12:50:03.460Z,11.40
2023-03-10T12:52:23.771Z,11.30
2023-03-10T12:54:51.942Z,11.40
2023-03-10T12:57:02.749Z,11.40
2023-03-10T12:59:17.152Z,11.50
2023-03-10T13:01:20.658Z,11.60
2023-03-10T13:03:22.330Z,11.50
2023-03-10T13:05:31.568Z,11.40
2023-03-10T13:07:34.846Z,11.40
2023-03-10T13:09:38.879Z,11.50
2023-03-10T13:11:57.707Z,11.50
2023-03-10T13:14:14.818Z,11.60
2023-03-10T13:16:18.615Z,11.50
2023-03-10T13:18:22.173Z,11.60
2023-03-10T13:20:23.842Z,11.50
2023-03-10T13:22:25.689Z,11.40
2023-03-10T13:24:31.260Z,11.40
2023-03-10T13:26:32.882Z,11.40
2023-03-10T13:28:35.597Z,11.20
2023-03-10T13:30:37.225Z,11.10
2023-03-10T13:32:38.955Z,11.20
2023-03-10T13:34:40.661Z,11.10
2023-03-10T13:36:42.409Z,11.30
2023-03-10T13:38:44.055Z,11.30
2023-03-10T13:40:47.194Z,11.20
2023-03-10T13:42:48.882Z,11.00
2023-03-10T13:44:50.832Z,10.90
2023-03-10T13:46:54.881Z,11.80
2023-03-10T13:49:03.521Z,12.30
2023-03-10T13:51:08.010Z,12.20
2023-03-10T13:53:23.194Z,12.30
2023-03-10T13:55:25.330Z,12.20
2023-03-10T13:57:26.900Z,12.00
2023-03-10T13:59:30.777Z,11.60
2023-03-10T14:01:37.169Z,11.50
2023-03-10T14:03:48.162Z,11.40
2023-03-10T14:05:49.925Z,11.30
2023-03-10T14:08:01.290Z,11.30
2023-03-10T14:10:05.763Z,11.00
2023-03-10T14:12:08.410Z,10.90
2023-03-10T14:14:10.880Z,10.80
2023-03-10T14:16:12.697Z,11.00
2023-03-10T14:18:14.363Z,11.30
2023-03-10T14:20:29.512Z,11.30
2023-03-10T14:22:35.723Z,11.30
2023-03-10T14:24:37.403Z,11.20
2023-03-10T14:26:39.697Z,11.10
2023-03-10T14:28:41.734Z,10.90
2023-03-10T14:30:46.692Z,10.90
2023-03-10T14:32:48.526Z,10.90
2023-03-10T14:34:50.564Z,10.80
2023-03-10T14:36:52.310Z,10.80
2023-03-10T14:38:53.977Z,10.80
2023-03-10T14:40:55.684Z,10.70
2023-03-10T14:42:58.934Z,10.70
2023-03-10T14:45:05.398Z,10.70
2023-03-10T14:47:08.671Z,10.70
2023-03-10T14:49:13.038Z,10.60
2023-03-10T14:51:32.487Z,10.60
2023-03-10T14:53:36.350Z,10.50
2023-03-10T14:55:38.555Z,10.20
2023-03-10T14:57:40.893Z,10.10
2023-03-10T14:59:46.138Z,10.10
2023-03-10T15:01:47.792Z,10.10
2023-03-10T15:03:49.436Z,10.10
2023-03-10T15:05:51.110Z,10.10
2023-03-10T15:07:52.903Z,10.10
2023-03-10T15:10:08.851Z,10.00
2023-03-10T15:12:17.827Z,9.90
2023-03-10T15:14:19.924Z,9.90
2023-03-10T15:16:21.898Z,9.80
2023-03-10T15:18:24.322Z,9.80
2023-03-10T15:20:26.020Z,9.80
2023-03-10T15:22:27.616Z,9.80
2023-03-10T15:24:29.356Z,9.80
2023-03-10T15:26:30.993Z,9.70
2023-03-10T15:28:32.571Z,9.70
2023-03-10T15:30:35.488Z,9.80
2023-03-10T15:32:37.224Z,9.70
2023-03-10T15:34:38.973Z,9.70
2023-03-10T15:36:41.125Z,9.70
2023-03-10T15:38:42.753Z,9.70
2023-03-10T15:40:44.445Z,9.80
2023-03-10T15:42:46.752Z,9.80
2023-03-10T15:44:49.082Z,9.90
2023-03-10T15:46:54.688Z,9.90
2023-03-10T15:48:56.460Z,9.90
2023-03-10T15:50:58.293Z,10.10
2023-03-10T15:52:59.982Z,10.00
2023-03-10T15:55:01.743Z,9.80
2023-03-10T15:57:03.377Z,9.80
2023-03-10T15:59:05.470Z,9.90
2023-03-10T16:01:08.722Z,10.10
2023-03-10T16:03:11.250Z,10.40
2023-03-10T16:05:12.937Z,10.70
2023-03-10T16:07:15.067Z,10.80
2023-03-10T16:09:16.737Z,10.80
2023-03-10T16:11:19.351Z,11.00
2023-03-10T16:13:21.629Z,11.80
2023-03-10T16:15:23.381Z,11.70
2023-03-10T16:17:25.100Z,12.10
2023-03-10T16:19:27.452Z,12.00
2023-03-10T16:21:29.194Z,12.30
2023-03-10T16:23:32.408Z,11.70
2023-03-10T16:25:34.048Z,11.90
2023-03-10T16:27:35.749Z,12.50
2023-03-10T16:29:40.137Z,12.10
2023-03-10T16:31:42.974Z,11.60
2023-03-10T16:33:45.253Z,10.70
2023-03-10T16:35:46.907Z,10.40
2023-03-10T16:37:48.583Z,10.20
2023-03-10T16:39:52.486Z,10.10
2023-03-10T16:41:54.120Z,10.00
2023-03-10T16:43:55.757Z,10.00
2023-03-10T16:46:17.477Z,9.90
2023-03-10T16:48:19.407Z,9.80
2023-03-10T16:50:21.038Z,9.80
2023-03-10T16:52:22.763Z,9.60
2023-03-10T16:54:24.401Z,9.30
2023-03-10T16:56:27.696Z,8.30
2023-03-10T16:58:29.471Z,7.90
2023-03-10T17:00:31.329Z,7.70
2023-03-10T17:02:33.001Z,7.80
2023-03-10T17:04:34.618Z,8.20
2023-03-10T17:06:36.490Z,8.20
2023-03-10T17:08:38.562Z,8.30
2023-03-10T17:10:40.150Z,8.30
2023-03-10T17:12:42.856Z,8.20
2023-03-10T17:14:44.543Z,8.10
2023-03-10T17:16:46.915Z,8.10
2023-03-10T17:18:48.885Z,8.10
2023-03-10T17:20:50.495Z,8.00
2023-03-10T17:22:52.159Z,8.00
2023-03-10T17:24:54.132Z,8.00
2023-03-10T17:26:55.831Z,8.00
2023-03-10T17:28:57.537Z,8.00
2023-03-10T17:30:59.211Z,8.00
2023-03-10T17:33:00.829Z,8.00
2023-03-10T17:35:03.621Z,8.00
2023-03-10T17:37:05.371Z,7.90
2023-03-10T17:39:07.127Z,7.90
2023-03-10T17:41:10.213Z,7.90
2023-03-10T17:43:23.402Z,8.00
2023-03-10T17:45:33.353Z,8.00
2023-03-10T17:47:35.405Z,7.90
2023-03-10T17:49:37.146Z,7.80
2023-03-10T17:51:40.634Z,7.70
2023-03-10T17:53:42.837Z,7.70
2023-03-10T17:55:44.529Z,7.80
2023-03-10T17:57:46.206Z,7.70
2023-03-10T17:59:47.855Z,7.60
2023-03-10T18:01:49.970Z,7.60
2023-03-10T18:03:51.548Z,7.60
2023-03-10T18:05:53.118Z,7.60
2023-03-10T18:07:55.378Z,7.60
2023-03-10T18:09:58.302Z,7.60
2023-03-10T18:12:00.093Z,7.60
2023-03-10T18:14:03.774Z,7.60
2023-03-10T18:16:06.763Z,7.60
2023-03-10T18:18:08.472Z,7.60
2023-03-10T18:20:14.643Z,7.70
2023-03-10T18:22:16.322Z,7.70
2023-03-10T18:24:18.069Z,7.70
2023-03-10T18:26:21.966Z,7.60
2023-03-10T18:28:23.694Z,7.60
2023-03-10T18:30:25.981Z,7.60
2023-03-10T18:32:27.694Z,7.50
2023-03-10T18:34:29.348Z,7.50
2023-03-10T18:36:32.052Z,7.50
2023-03-10T18:38:33.982Z,7.50
2023-03-10T18:40:35.695Z,7.50
2023-03-10T18:42:37.389Z,7.40
2023-03-10T18:44:39.021Z,7.40
2023-03-10T18:46:40.708Z,7.30
2023-03-10T18:48:42.450Z,7.20
2023-03-10T18:50:44.103Z,7.20
2023-03-10T18:52:45.948Z,7.20
2023-03-10T18:54:48.051Z,7.20
2023-03-10T18:56:50.067Z,7.20
2023-03-10T18:58:51.724Z,7.10
2023-03-10T19:00:53.361Z,7.00
2023-03-10T19:02:55.093Z,6.70
2023-03-10T19:04:59.460Z,6.60
2023-03-10T19:07:01.227Z,6.20
2023-03-10T19:09:02.996Z,6.00
2023-03-10T19:11:06.667Z,6.00
2023-03-10T19:13:08.527Z,6.20
2023-03-10T19:15:14.464Z,6.20
2023-03-10T19:17:16.443Z,6.30
2023-03-10T19:19:18.100Z,6.40
2023-03-10T19:21:21.906Z,6.40
2023-03-10T19:23:24.510Z,6.50
2023-03-10T19:25:26.434Z,6.60
2023-03-10T19:27:29.585Z,6.50
2023-03-10T19:29:31.763Z,6.50
2023-03-10T19:31:33.459Z,6.60
2023-03-10T19:33:35.322Z,6.60
2023-03-10T19:35:37.477Z,6.70
2023-03-10T19:37:42.862Z,6.80
2023-03-10T19:39:44.593Z,6.80
2023-03-10T19:41:46.303Z,6.80
2023-03-10T19:43:51.422Z,6.80
2023-03-10T19:45:59.087Z,6.80
2023-03-10T19:48:01.151Z,6.70
2023-03-10T19:50:02.979Z,6.80
2023-03-10T19:52:04.792Z,6.70
2023-03-10T19:54:09.293Z,6.70
2023-03-10T19:56:11.051Z,6.70
2023-03-10T19:58:13.103Z,6.70
2023-03-10T20:00:16.689Z,6.70
2023-03-10T20:02:18.352Z,6.60
2023-03-10T20:04:20.150Z,6.40
2023-03-10T20:06:23.807Z,6.10
2023-03-10T20:08:25.568Z,6.00
2023-03-10T20:10:30.008Z,6.00
2023-03-10T20:12:32.061Z,5.90
2023-03-10T20:14:34.086Z,5.90
2023-03-10T20:16:35.832Z,5.90
2023-03-10T20:18:38.739Z,5.80
2023-03-10T20:20:40.669Z,5.70
2023-03-10T20:22:43.534Z,5.70
2023-03-10T20:24:48.235Z,5.60
2023-03-10T20:26:50.019Z,5.60
2023-03-10T20:28:52.355Z,5.70
2023-03-10T20:30:53.961Z,5.60
2023-03-10T20:32:55.805Z,5.60
2023-03-10T20:35:00.684Z,5.60
2023-03-10T20:37:02.530Z,5.60
2023-03-10T20:39:04.906Z,5.70
2023-03-10T20:41:08.975Z,5.70
2023-03-10T20:43:13.382Z,5.70
2023-03-10T20:45:15.087Z,5.70
2023-03-10T20:47:16.945Z,5.70
2023-03-10T20:49:18.620Z,5.80
2023-03-10T20:51:22.612Z,5.80
2023-03-10T20:53:24.570Z,5.80
2023-03-10T20:55:28.176Z,5.80
2023-03-10T20:57:31.450Z,5.70
2023-03-10T20:59:33.059Z,5.30
2023-03-10T21:01:39.658Z,4.90
2023-03-10T21:03:41.925Z,4.80
2023-03-10T21:05:44.754Z,4.70
2023-03-10T21:07:46.460Z,4.50
2023-03-10T21:09:48.380Z,4.50
2023-03-10T21:11:53.329Z,4.50
2023-03-10T21:13:55.049Z,4.50
2023-03-10T21:15:56.704Z,4.50
2023-03-10T21:17:58.535Z,4.60
2023-03-10T21:20:00.357Z,4.60
2023-03-10T21:22:03.439Z,4.50
2023-03-10T21:24:05.241Z,4.50
2023-03-10T21:26:11.073Z,4.50
2023-03-10T21:28:13.025Z,4.50
2023-03-10T21:30:19.199Z,4.60
2023-03-10T21:32:21.420Z,4.60
2023-03-10T21:34:23.122Z,4.60
2023-03-10T21:36:24.851Z,4.60
2023-03-10T21:38:26.516Z,4.70
2023-03-10T21:40:28.403Z,4.70
2023-03-10T21:42:30.046Z,4.70
2023-03-10T21:44:34.718Z,4.70
2023-03-10T21:46:36.850Z,4.70
2023-03-10T21:48:38.734Z,4.80
2023-03-10T21:50:40.352Z,4.70
2023-03-10T21:52:42.269Z,4.80
2023-03-10T21:54:44.120Z,4.80
2023-03-10T21:56:45.778Z,4.80
2023-03-10T21:58:47.656Z,4.80
2023-03-10T22:00:49.700Z,4.80
2023-03-10T22:02:52.705Z,4.80
2023-03-10T22:04:54.451Z,4.70
2023-03-10T22:06:56.269Z,4.80
2023-03-10T22:08:57.909Z,4.80
2023-03-10T22:11:00.466Z,4.80
2023-03-10T22:13:02.618Z,4.80
2023-03-10T22:15:05.514Z,4.70
2023-03-10T22:17:07.560Z,4.80
2023-03-10T22:19:12.176Z,4.80
2023-03-10T22:21:15.765Z,4.80
2023-03-10T22:23:18.035Z,4.80
2023-03-10T22:25:20.215Z,4.70
2023-03-10T22:27:21.968Z,4.70
2023-03-10T22:29:24.121Z,4.80
2023-03-10T22:31:25.736Z,4.70
2023-03-10T22:33:27.394Z,4.70
2023-03-10T22:35:29.364Z,4.70
2023-03-10T22:37:31.118Z,4.70
2023-03-10T22:39:32.739Z,4.70
2023-03-10T22:41:38.471Z,4.70
2023-03-10T22:43:40.869Z,4.60
2023-03-10T22:45:43.147Z,4.60
2023-03-10T22:47:45.428Z,4.60
2023-03-10T22:49:47.025Z,4.50
2023-03-10T22:51:48.789Z,4.50
2023-03-10T22:53:50.868Z,4.50
2023-03-10T22:55:52.730Z,4.50
2023-03-10T22:57:56.726Z,4.50
2023-03-10T22:59:58.605Z,4.50
2023-03-10T23:02:00.556Z,4.50
2023-03-10T23:04:03.253Z,4.50
2023-03-10T23:06:07.722Z,4.40
2023-03-10T23:08:09.574Z,4.40
2023-03-10T23:10:15.963Z,4.40
2023-03-10T23:12:17.856Z,4.30
2023-03-10T23:14:19.515Z,4.30
2023-03-10T23:16:22.938Z,4.30
2023-03-10T23:18:24.817Z,4.30
2023-03-10T23:20:28.487Z,4.30
2023-03-10T23:22:30.364Z,4.30
2023-03-10T23:24:31.964Z,4.30
2023-03-10T23:26:35.140Z,4.20
2023-03-10T23:28:37.021Z,4.20
2023-03-10T23:30:40.270Z,4.20
2023-03-10T23:32:42.486Z,4.10
2023-03-10T23:34:44.276Z,4.10
2023-03-10T23:36:46.547Z,4.10
2023-03-10T23:38:49.064Z,4.00
2023-03-10T23:40:52.469Z,4.00
2023-03-10T23:42:57.980Z,4.00
2023-03-10T23:44:59.570Z,4.00
2023-03-10T23:47:01.234Z,4.00
2023-03-10T23:49:03.432Z,4.00
2023-03-10T23:51:05.228Z,4.00
2023-03-10T23:53:07.674Z,4.00
2023-03-10T23:55:12.310Z,4.00
2023-03-10T23:57:14.031Z,4.00
2023-03-10T23:59:16.265Z,3.90
